sensor_id;sensor_type;location;lat;lon;timestamp;P1;durP1;ratioP1;P2;durP2;ratioP2
25609;SDS011;13479;49.044;8.716;2023-07-24T04:01:42;10.90;;;5.70;;
25609;SDS011;13479;49.044;8.716;2023-07-24T04:04:08;11.80;;;7.50;;
25609;SDS011;13479;49.044;8.716;2023-07-24T04:06:33;16.50;;;8.30;;
25609;SDS011;13479;49.044;8.716;2023-07-24T04:08:59;13.73;;;7.63;;
25609;SDS011;13479;49.044;8.716;2023-07-24T04:11:24;12.63;;;7.50;;
25609;SDS011;13479;49.044;8.716;2023-07-24T04:13:49;13.98;;;7.63;;
25609;SDS011;13479;49.044;8.716;2023-07-24T04:16:14;12.38;;;7.28;;
25609;SDS011;13479;49.044;8.716;2023-07-24T04:18:40;14.85;;;7.63;;
25609;SDS011;13479;49.044;8.716;2023-07-24T04:21:05;17.55;;;7.70;;
25609;SDS011;13479;49.044;8.716;2023-07-24T04:23:30;15.30;;;7.40;;
25609;SDS011;13479;49.044;8.716;2023-07-24T04:25:55;11.27;;;7.28;;
25609;SDS011;13479;49.044;8.716;2023-07-24T04:28:21;14.52;;;7.75;;
25609;SDS011;13479;49.044;8.716;2023-07-24T04:30:46;15.75;;;7.88;;
25609;SDS011;13479;49.044;8.716;2023-07-24T04:33:11;14.85;;;7.75;;
25609;SDS011;13479;49.044;8.716;2023-07-24T04:35:36;13.80;;;7.80;;
25609;SDS011;13479;49.044;8.716;2023-07-24T04:38:02;14.80;;;7.85;;
25609;SDS011;13479;49.044;8.716;2023-07-24T04:40:27;23.52;;;7.95;;
25609;SDS011;13479;49.044;8.716;2023-07-24T04:42:52;12.65;;;7.15;;
25609;SDS011;13479;49.044;8.716;2023-07-24T04:45:17;13.40;;;7.57;;
25609;SDS011;13479;49.044;8.716;2023-07-24T04:47:43;13.27;;;7.25;;
25609;SDS011;13479;49.044;8.716;2023-07-24T04:50:08;12.43;;;6.72;;
25609;SDS011;13479;49.044;8.716;2023-07-24T04:52:34;12.30;;;7.00;;
25609;SDS011;13479;49.044;8.716;2023-07-24T04:54:59;13.07;;;6.70;;
25609;SDS011;13479;49.044;8.716;2023-07-24T04:57:24;15.38;;;7.05;;
25609;SDS011;13479;49.044;8.716;2023-07-24T04:59:49;12.73;;;6.93;;
25609;SDS011;13479;49.044;8.716;2023-07-24T05:02:15;15.48;;;7.03;;
25609;SDS011;13479;49.044;8.716;2023-07-24T05:04:40;12.20;;;7.25;;
25609;SDS011;13479;49.044;8.716;2023-07-24T05:07:06;12.50;;;7.22;;
25609;SDS011;13479;49.044;8.716;2023-07-24T05:09:31;11.57;;;6.63;;
25609;SDS011;13479;49.044;8.716;2023-07-24T05:11:57;12.05;;;6.95;;
25609;SDS011;13479;49.044;8.716;2023-07-24T05:14:22;15.05;;;7.32;;
25609;SDS011;13479;49.044;8.716;2023-07-24T05:16:47;13.70;;;7.18;;
25609;SDS011;13479;49.044;8.716;2023-07-24T05:19:12;15.77;;;7.10;;
25609;SDS011;13479;49.044;8.716;2023-07-24T05:21:38;18.23;;;7.05;;
25609;SDS011;13479;49.044;8.716;2023-07-24T05:24:03;13.80;;;6.85;;
25609;SDS011;13479;49.044;8.716;2023-07-24T05:26:28;13.32;;;7.07;;
25609;SDS011;13479;49.044;8.716;2023-07-24T05:28:53;13.85;;;6.65;;
25609;SDS011;13479;49.044;8.716;2023-07-24T05:31:19;14.18;;;7.55;;
25609;SDS011;13479;49.044;8.716;2023-07-24T05:33:44;14.38;;;7.43;;
25609;SDS011;13479;49.044;8.716;2023-07-24T05:36:09;12.95;;;7.07;;
25609;SDS011;13479;49.044;8.716;2023-07-24T05:38:34;13.18;;;7.57;;
25609;SDS011;13479;49.044;8.716;2023-07-24T05:41:01;12.50;;;7.40;;
25609;SDS011;13479;49.044;8.716;2023-07-24T05:43:27;11.63;;;6.53;;
25609;SDS011;13479;49.044;8.716;2023-07-24T05:45:54;12.25;;;7.20;;
25609;SDS011;13479;49.044;8.716;2023-07-24T05:48:20;15.75;;;6.78;;
25609;SDS011;13479;49.044;8.716;2023-07-24T05:50:46;12.23;;;6.72;;
25609;SDS011;13479;49.044;8.716;2023-07-24T05:53:12;13.55;;;7.10;;
25609;SDS011;13479;49.044;8.716;2023-07-24T05:55:37;15.18;;;7.10;;
25609;SDS011;13479;49.044;8.716;2023-07-24T05:58:03;13.75;;;7.15;;
25609;SDS011;13479;49.044;8.716;2023-07-24T06:00:28;12.20;;;7.22;;
25609;SDS011;13479;49.044;8.716;2023-07-24T06:02:53;13.93;;;7.40;;
25609;SDS011;13479;49.044;8.716;2023-07-24T06:05:19;9.75;;;6.53;;
25609;SDS011;13479;49.044;8.716;2023-07-24T06:07:45;17.95;;;7.43;;
25609;SDS011;13479;49.044;8.716;2023-07-24T06:10:13;14.40;;;7.53;;
25609;SDS011;13479;49.044;8.716;2023-07-24T06:12:39;12.50;;;6.97;;
25609;SDS011;13479;49.044;8.716;2023-07-24T06:15:04;12.07;;;7.10;;
25609;SDS011;13479;49.044;8.716;2023-07-24T06:17:30;13.18;;;7.45;;
25609;SDS011;13479;49.044;8.716;2023-07-24T06:19:55;12.70;;;6.97;;
25609;SDS011;13479;49.044;8.716;2023-07-24T06:22:21;12.18;;;6.78;;
25609;SDS011;13479;49.044;8.716;2023-07-24T06:24:46;12.88;;;7.10;;
25609;SDS011;13479;49.044;8.716;2023-07-24T06:27:12;12.75;;;7.55;;
25609;SDS011;13479;49.044;8.716;2023-07-24T06:29:37;11.15;;;6.95;;
25609;SDS011;13479;49.044;8.716;2023-07-24T06:32:02;11.05;;;7.25;;
25609;SDS011;13479;49.044;8.716;2023-07-24T06:34:28;11.40;;;7.10;;
25609;SDS011;13479;49.044;8.716;2023-07-24T06:36:53;13.25;;;7.65;;
25609;SDS011;13479;49.044;8.716;2023-07-24T06:39:18;11.70;;;6.18;;
25609;SDS011;13479;49.044;8.716;2023-07-24T06:41:44;12.93;;;6.65;;
25609;SDS011;13479;49.044;8.716;2023-07-24T06:44:09;13.23;;;7.05;;
25609;SDS011;13479;49.044;8.716;2023-07-24T06:46:34;13.70;;;7.28;;
25609;SDS011;13479;49.044;8.716;2023-07-24T06:49:00;12.68;;;6.90;;
25609;SDS011;13479;49.044;8.716;2023-07-24T06:51:25;11.57;;;7.22;;
25609;SDS011;13479;49.044;8.716;2023-07-24T06:53:50;12.15;;;6.65;;
25609;SDS011;13479;49.044;8.716;2023-07-24T06:56:15;11.85;;;6.22;;
25609;SDS011;13479;49.044;8.716;2023-07-24T06:58:40;12.02;;;7.10;;
25609;SDS011;13479;49.044;8.716;2023-07-24T07:01:06;12.73;;;6.25;;
25609;SDS011;13479;49.044;8.716;2023-07-24T07:03:32;15.07;;;7.90;;
25609;SDS011;13479;49.044;8.716;2023-07-24T07:05:59;11.73;;;7.50;;
25609;SDS011;13479;49.044;8.716;2023-07-24T07:08:25;15.88;;;7.95;;
25609;SDS011;13479;49.044;8.716;2023-07-24T07:10:56;13.90;;;7.82;;
25609;SDS011;13479;49.044;8.716;2023-07-24T07:13:22;16.33;;;8.10;;
25609;SDS011;13479;49.044;8.716;2023-07-24T07:15:47;15.02;;;8.00;;
25609;SDS011;13479;49.044;8.716;2023-07-24T07:18:13;15.20;;;7.85;;
25609;SDS011;13479;49.044;8.716;2023-07-24T07:20:38;13.40;;;7.57;;
25609;SDS011;13479;49.044;8.716;2023-07-24T07:23:03;14.40;;;7.47;;
25609;SDS011;13479;49.044;8.716;2023-07-24T07:25:28;13.07;;;7.63;;
25609;SDS011;13479;49.044;8.716;2023-07-24T07:27:54;14.35;;;8.65;;
25609;SDS011;13479;49.044;8.716;2023-07-24T07:30:19;19.38;;;9.60;;
25609;SDS011;13479;49.044;8.716;2023-07-24T07:32:44;16.75;;;9.25;;
25609;SDS011;13479;49.044;8.716;2023-07-24T07:35:09;16.25;;;8.38;;
25609;SDS011;13479;49.044;8.716;2023-07-24T07:37:35;27.08;;;10.63;;
25609;SDS011;13479;49.044;8.716;2023-07-24T07:40:00;15.43;;;8.77;;
25609;SDS011;13479;49.044;8.716;2023-07-24T07:42:25;14.82;;;7.53;;
25609;SDS011;13479;49.044;8.716;2023-07-24T07:44:50;16.45;;;9.55;;
25609;SDS011;13479;49.044;8.716;2023-07-24T07:47:16;15.05;;;8.73;;
25609;SDS011;13479;49.044;8.716;2023-07-24T07:49:41;14.95;;;8.18;;
25609;SDS011;13479;49.044;8.716;2023-07-24T07:52:06;12.00;;;7.45;;
25609;SDS011;13479;49.044;8.716;2023-07-24T07:54:32;14.55;;;8.43;;
25609;SDS011;13479;49.044;8.716;2023-07-24T07:56:57;15.70;;;8.50;;
25609;SDS011;13479;49.044;8.716;2023-07-24T07:59:22;14.70;;;8.20;;
25609;SDS011;13479;49.044;8.716;2023-07-24T08:01:48;13.43;;;7.28;;
25609;SDS011;13479;49.044;8.716;2023-07-24T08:04:13;12.57;;;8.10;;
25609;SDS011;13479;49.044;8.716;2023-07-24T08:06:38;14.13;;;8.68;;
25609;SDS011;13479;49.044;8.716;2023-07-24T08:09:03;14.27;;;8.85;;
25609;SDS011;13479;49.044;8.716;2023-07-24T08:11:29;14.27;;;8.05;;
25609;SDS011;13479;49.044;8.716;2023-07-24T08:13:54;13.18;;;8.32;;
25609;SDS011;13479;49.044;8.716;2023-07-24T08:16:19;12.48;;;8.07;;
25609;SDS011;13479;49.044;8.716;2023-07-24T08:18:45;11.63;;;7.10;;
25609;SDS011;13479;49.044;8.716;2023-07-24T08:21:12;11.95;;;7.03;;
25609;SDS011;13479;49.044;8.716;2023-07-24T08:23:38;11.68;;;7.65;;
25609;SDS011;13479;49.044;8.716;2023-07-24T08:26:03;15.65;;;8.13;;
25609;SDS011;13479;49.044;8.716;2023-07-24T08:28:28;16.83;;;7.95;;
25609;SDS011;13479;49.044;8.716;2023-07-24T08:30:58;13.88;;;7.95;;
25609;SDS011;13479;49.044;8.716;2023-07-24T08:33:23;13.10;;;7.63;;
25609;SDS011;13479;49.044;8.716;2023-07-24T08:36:02;12.93;;;7.90;;
25609;SDS011;13479;49.044;8.716;2023-07-24T08:38:32;11.73;;;7.47;;
25609;SDS011;13479;49.044;8.716;2023-07-24T08:41:08;14.38;;;7.75;;
25609;SDS011;13479;49.044;8.716;2023-07-24T08:43:35;10.40;;;6.53;;
25609;SDS011;13479;49.044;8.716;2023-07-24T08:46:01;16.42;;;7.80;;
25609;SDS011;13479;49.044;8.716;2023-07-24T08:48:31;12.50;;;7.20;;
25609;SDS011;13479;49.044;8.716;2023-07-24T08:51:00;13.57;;;7.53;;
25609;SDS011;13479;49.044;8.716;2023-07-24T08:53:27;11.82;;;7.38;;
25609;SDS011;13479;49.044;8.716;2023-07-24T08:55:54;11.68;;;6.57;;
25609;SDS011;13479;49.044;8.716;2023-07-24T08:58:21;15.40;;;8.23;;
25609;SDS011;13479;49.044;8.716;2023-07-24T09:00:46;12.43;;;7.38;;
25609;SDS011;13479;49.044;8.716;2023-07-24T09:03:11;11.60;;;7.32;;
25609;SDS011;13479;49.044;8.716;2023-07-24T09:05:36;17.33;;;8.35;;
25609;SDS011;13479;49.044;8.716;2023-07-24T09:08:02;17.30;;;7.65;;
25609;SDS011;13479;49.044;8.716;2023-07-24T09:10:27;13.48;;;6.85;;
25609;SDS011;13479;49.044;8.716;2023-07-24T09:12:53;12.02;;;7.25;;
25609;SDS011;13479;49.044;8.716;2023-07-24T09:15:19;12.73;;;7.00;;
25609;SDS011;13479;49.044;8.716;2023-07-24T09:17:48;13.38;;;6.80;;
25609;SDS011;13479;49.044;8.716;2023-07-24T09:20:15;12.82;;;6.85;;
25609;SDS011;13479;49.044;8.716;2023-07-24T09:22:50;12.85;;;6.63;;
25609;SDS011;13479;49.044;8.716;2023-07-24T09:25:41;12.95;;;6.85;;
25609;SDS011;13479;49.044;8.716;2023-07-24T09:28:09;14.05;;;7.40;;
25609;SDS011;13479;49.044;8.716;2023-07-24T09:30:41;13.40;;;6.00;;
25609;SDS011;13479;49.044;8.716;2023-07-24T09:33:15;16.17;;;7.10;;
25609;SDS011;13479;49.044;8.716;2023-07-24T09:35:41;13.05;;;7.10;;
25609;SDS011;13479;49.044;8.716;2023-07-24T09:38:07;11.50;;;6.43;;
25609;SDS011;13479;49.044;8.716;2023-07-24T09:40:41;13.02;;;6.63;;
25609;SDS011;13479;49.044;8.716;2023-07-24T09:45:44;11.25;;;6.53;;
25609;SDS011;13479;49.044;8.716;2023-07-24T09:48:10;12.25;;;6.07;;
25609;SDS011;13479;49.044;8.716;2023-07-24T09:50:38;9.55;;;5.85;;
25609;SDS011;13479;49.044;8.716;2023-07-24T09:53:04;11.85;;;6.43;;
25609;SDS011;13479;49.044;8.716;2023-07-24T09:55:35;8.95;;;5.97;;
25609;SDS011;13479;49.044;8.716;2023-07-24T09:58:11;12.07;;;6.15;;
25609;SDS011;13479;49.044;8.716;2023-07-24T10:00:37;10.88;;;6.60;;
25609;SDS011;13479;49.044;8.716;2023-07-24T10:03:02;9.75;;;5.95;;
25609;SDS011;13479;49.044;8.716;2023-07-24T10:05:28;9.98;;;6.63;;
25609;SDS011;13479;49.044;8.716;2023-07-24T10:07:54;10.63;;;6.22;;
25609;SDS011;13479;49.044;8.716;2023-07-24T10:10:20;9.43;;;6.30;;
25609;SDS011;13479;49.044;8.716;2023-07-24T10:12:46;12.45;;;6.20;;
25609;SDS011;13479;49.044;8.716;2023-07-24T10:15:13;8.40;;;5.82;;
25609;SDS011;13479;49.044;8.716;2023-07-24T10:17:40;9.35;;;6.45;;
25609;SDS011;13479;49.044;8.716;2023-07-24T10:20:07;10.20;;;6.88;;
25609;SDS011;13479;49.044;8.716;2023-07-24T10:22:34;12.23;;;7.60;;
25609;SDS011;13479;49.044;8.716;2023-07-24T10:25:02;12.73;;;7.22;;
25609;SDS011;13479;49.044;8.716;2023-07-24T10:27:28;12.20;;;7.00;;
25609;SDS011;13479;49.044;8.716;2023-07-24T10:30:03;11.18;;;6.30;;
25609;SDS011;13479;49.044;8.716;2023-07-24T10:32:32;10.50;;;6.50;;
25609;SDS011;13479;49.044;8.716;2023-07-24T10:34:59;10.77;;;6.82;;
25609;SDS011;13479;49.044;8.716;2023-07-24T10:37:35;11.70;;;6.80;;
25609;SDS011;13479;49.044;8.716;2023-07-24T10:40:01;11.27;;;6.57;;
25609;SDS011;13479;49.044;8.716;2023-07-24T10:42:28;15.85;;;7.53;;
25609;SDS011;13479;49.044;8.716;2023-07-24T10:45:03;11.48;;;6.75;;
25609;SDS011;13479;49.044;8.716;2023-07-24T10:47:29;13.27;;;7.18;;
25609;SDS011;13479;49.044;8.716;2023-07-24T10:49:54;12.13;;;7.00;;
25609;SDS011;13479;49.044;8.716;2023-07-24T10:52:27;10.82;;;6.95;;
25609;SDS011;13479;49.044;8.716;2023-07-24T10:54:53;13.05;;;6.88;;
25609;SDS011;13479;49.044;8.716;2023-07-24T10:57:24;10.60;;;7.10;;
25609;SDS011;13479;49.044;8.716;2023-07-24T10:59:50;10.57;;;6.97;;
25609;SDS011;13479;49.044;8.716;2023-07-24T11:02:16;13.85;;;6.88;;
25609;SDS011;13479;49.044;8.716;2023-07-24T11:04:41;13.88;;;7.80;;
25609;SDS011;13479;49.044;8.716;2023-07-24T11:07:07;14.57;;;7.03;;
25609;SDS011;13479;49.044;8.716;2023-07-24T11:09:36;10.82;;;7.30;;
25609;SDS011;13479;49.044;8.716;2023-07-24T11:14:49;10.57;;;6.20;;
25609;SDS011;13479;49.044;8.716;2023-07-24T11:17:15;12.68;;;6.63;;
25609;SDS011;13479;49.044;8.716;2023-07-24T11:19:41;10.38;;;5.15;;
25609;SDS011;13479;49.044;8.716;2023-07-24T11:22:07;11.75;;;5.53;;
25609;SDS011;13479;49.044;8.716;2023-07-24T11:24:32;9.30;;;6.25;;
25609;SDS011;13479;49.044;8.716;2023-07-24T11:26:57;10.82;;;5.47;;
25609;SDS011;13479;49.044;8.716;2023-07-24T11:29:23;9.00;;;5.68;;
25609;SDS011;13479;49.044;8.716;2023-07-24T11:31:53;7.90;;;5.60;;
25609;SDS011;13479;49.044;8.716;2023-07-24T11:34:19;8.65;;;5.50;;
25609;SDS011;13479;49.044;8.716;2023-07-24T11:36:45;8.48;;;4.72;;
25609;SDS011;13479;49.044;8.716;2023-07-24T11:39:10;8.90;;;5.68;;
25609;SDS011;13479;49.044;8.716;2023-07-24T11:41:36;9.35;;;5.68;;
25609;SDS011;13479;49.044;8.716;2023-07-24T11:44:01;8.55;;;5.15;;
25609;SDS011;13479;49.044;8.716;2023-07-24T11:46:27;10.80;;;5.88;;
25609;SDS011;13479;49.044;8.716;2023-07-24T11:48:54;10.05;;;5.88;;
25609;SDS011;13479;49.044;8.716;2023-07-24T11:51:21;7.65;;;5.43;;
25609;SDS011;13479;49.044;8.716;2023-07-24T11:53:49;10.38;;;5.80;;
25609;SDS011;13479;49.044;8.716;2023-07-24T11:56:15;7.85;;;5.15;;
25609;SDS011;13479;49.044;8.716;2023-07-24T11:58:42;10.43;;;5.90;;
25609;SDS011;13479;49.044;8.716;2023-07-24T12:01:07;8.20;;;5.30;;
25609;SDS011;13479;49.044;8.716;2023-07-24T12:03:32;9.25;;;5.70;;
25609;SDS011;13479;49.044;8.716;2023-07-24T12:05:58;7.95;;;5.30;;
25609;SDS011;13479;49.044;8.716;2023-07-24T12:08:30;9.77;;;5.20;;
25609;SDS011;13479;49.044;8.716;2023-07-24T12:10:57;7.95;;;5.28;;
25609;SDS011;13479;49.044;8.716;2023-07-24T12:13:22;8.68;;;5.15;;
25609;SDS011;13479;49.044;8.716;2023-07-24T12:15:48;9.45;;;5.15;;
25609;SDS011;13479;49.044;8.716;2023-07-24T12:18:14;9.15;;;5.30;;
25609;SDS011;13479;49.044;8.716;2023-07-24T12:20:40;9.80;;;5.78;;
25609;SDS011;13479;49.044;8.716;2023-07-24T12:23:05;7.85;;;5.10;;
25609;SDS011;13479;49.044;8.716;2023-07-24T12:25:30;8.40;;;5.10;;
25609;SDS011;13479;49.044;8.716;2023-07-24T12:27:56;9.23;;;5.60;;
25609;SDS011;13479;49.044;8.716;2023-07-24T12:30:21;8.18;;;5.32;;
25609;SDS011;13479;49.044;8.716;2023-07-24T12:32:46;9.35;;;5.55;;
25609;SDS011;13479;49.044;8.716;2023-07-24T12:35:12;8.27;;;4.97;;
25609;SDS011;13479;49.044;8.716;2023-07-24T12:37:37;8.65;;;5.07;;
25609;SDS011;13479;49.044;8.716;2023-07-24T12:40:04;9.50;;;5.90;;
25609;SDS011;13479;49.044;8.716;2023-07-24T12:42:30;7.60;;;5.20;;
25609;SDS011;13479;49.044;8.716;2023-07-24T12:44:55;8.32;;;5.68;;
25609;SDS011;13479;49.044;8.716;2023-07-24T12:47:20;10.35;;;5.47;;
25609;SDS011;13479;49.044;8.716;2023-07-24T12:49:46;7.70;;;5.20;;
25609;SDS011;13479;49.044;8.716;2023-07-24T12:52:11;8.88;;;5.50;;
25609;SDS011;13479;49.044;8.716;2023-07-24T12:54:36;7.60;;;5.30;;
25609;SDS011;13479;49.044;8.716;2023-07-24T12:57:02;7.25;;;4.93;;
25609;SDS011;13479;49.044;8.716;2023-07-24T12:59:28;8.80;;;5.60;;
25609;SDS011;13479;49.044;8.716;2023-07-24T13:01:53;8.55;;;5.40;;
25609;SDS011;13479;49.044;8.716;2023-07-24T13:04:19;8.23;;;5.28;;
25609;SDS011;13479;49.044;8.716;2023-07-24T13:06:45;8.65;;;5.30;;
25609;SDS011;13479;49.044;8.716;2023-07-24T13:09:10;9.45;;;5.68;;
25609;SDS011;13479;49.044;8.716;2023-07-24T13:11:35;7.05;;;5.03;;
25609;SDS011;13479;49.044;8.716;2023-07-24T13:14:01;6.85;;;4.80;;
25609;SDS011;13479;49.044;8.716;2023-07-24T13:16:26;9.45;;;5.00;;
25609;SDS011;13479;49.044;8.716;2023-07-24T13:18:52;7.97;;;5.13;;
25609;SDS011;13479;49.044;8.716;2023-07-24T13:21:17;8.05;;;4.85;;
25609;SDS011;13479;49.044;8.716;2023-07-24T13:23:42;7.90;;;5.43;;
25609;SDS011;13479;49.044;8.716;2023-07-24T13:26:08;6.38;;;4.88;;
25609;SDS011;13479;49.044;8.716;2023-07-24T13:28:35;9.40;;;4.43;;
25609;SDS011;13479;49.044;8.716;2023-07-24T13:31:10;7.45;;;5.25;;
25609;SDS011;13479;49.044;8.716;2023-07-24T13:33:43;7.38;;;5.00;;
25609;SDS011;13479;49.044;8.716;2023-07-24T13:36:08;8.73;;;5.00;;
25609;SDS011;13479;49.044;8.716;2023-07-24T13:38:34;7.28;;;4.93;;
25609;SDS011;13479;49.044;8.716;2023-07-24T13:41:00;8.93;;;5.25;;
25609;SDS011;13479;49.044;8.716;2023-07-24T13:43:26;8.38;;;4.82;;
25609;SDS011;13479;49.044;8.716;2023-07-24T13:45:52;7.60;;;4.97;;
25609;SDS011;13479;49.044;8.716;2023-07-24T13:48:18;8.10;;;5.18;;
25609;SDS011;13479;49.044;8.716;2023-07-24T13:50:43;6.93;;;4.68;;
25609;SDS011;13479;49.044;8.716;2023-07-24T13:53:08;8.73;;;5.20;;
25609;SDS011;13479;49.044;8.716;2023-07-24T13:55:34;6.53;;;4.45;;
25609;SDS011;13479;49.044;8.716;2023-07-24T13:57:59;8.82;;;4.65;;
25609;SDS011;13479;49.044;8.716;2023-07-24T14:00:24;7.22;;;4.80;;
25609;SDS011;13479;49.044;8.716;2023-07-24T14:02:49;7.55;;;4.63;;
25609;SDS011;13479;49.044;8.716;2023-07-24T14:05:15;7.13;;;4.90;;
25609;SDS011;13479;49.044;8.716;2023-07-24T14:07:41;9.85;;;4.93;;
25609;SDS011;13479;49.044;8.716;2023-07-24T14:10:06;7.53;;;5.00;;
25609;SDS011;13479;49.044;8.716;2023-07-24T14:12:33;8.02;;;4.05;;
25609;SDS011;13479;49.044;8.716;2023-07-24T14:14:58;7.25;;;4.70;;
25609;SDS011;13479;49.044;8.716;2023-07-24T14:17:23;8.23;;;5.05;;
25609;SDS011;13479;49.044;8.716;2023-07-24T14:19:48;9.40;;;4.88;;
25609;SDS011;13479;49.044;8.716;2023-07-24T14:22:14;7.07;;;5.00;;
25609;SDS011;13479;49.044;8.716;2023-07-24T14:24:39;7.85;;;5.07;;
25609;SDS011;13479;49.044;8.716;2023-07-24T14:27:04;8.95;;;5.30;;
25609;SDS011;13479;49.044;8.716;2023-07-24T14:29:30;8.10;;;4.72;;
25609;SDS011;13479;49.044;8.716;2023-07-24T14:31:55;8.63;;;4.63;;
25609;SDS011;13479;49.044;8.716;2023-07-24T14:34:20;6.82;;;4.13;;
25609;SDS011;13479;49.044;8.716;2023-07-24T14:36:46;7.63;;;4.55;;
25609;SDS011;13479;49.044;8.716;2023-07-24T14:39:11;8.20;;;4.22;;
25609;SDS011;13479;49.044;8.716;2023-07-24T14:41:36;9.68;;;4.72;;
25609;SDS011;13479;49.044;8.716;2023-07-24T14:44:01;6.72;;;4.35;;
25609;SDS011;13479;49.044;8.716;2023-07-24T14:46:27;8.57;;;4.32;;
25609;SDS011;13479;49.044;8.716;2023-07-24T14:48:52;5.85;;;4.05;;
25609;SDS011;13479;49.044;8.716;2023-07-24T14:51:17;5.93;;;4.22;;
25609;SDS011;13479;49.044;8.716;2023-07-24T14:53:43;6.70;;;4.40;;
25609;SDS011;13479;49.044;8.716;2023-07-24T14:56:08;8.52;;;4.00;;
25609;SDS011;13479;49.044;8.716;2023-07-24T14:58:33;6.60;;;4.10;;
25609;SDS011;13479;49.044;8.716;2023-07-24T15:00:58;5.45;;;3.60;;
25609;SDS011;13479;49.044;8.716;2023-07-24T15:03:24;6.75;;;3.60;;
25609;SDS011;13479;49.044;8.716;2023-07-24T15:05:49;7.05;;;4.03;;
25609;SDS011;13479;49.044;8.716;2023-07-24T15:08:14;5.30;;;3.88;;
25609;SDS011;13479;49.044;8.716;2023-07-24T15:10:40;7.07;;;3.67;;
25609;SDS011;13479;49.044;8.716;2023-07-24T15:13:05;6.47;;;3.60;;
25609;SDS011;13479;49.044;8.716;2023-07-24T15:15:30;6.85;;;3.60;;
25609;SDS011;13479;49.044;8.716;2023-07-24T15:17:57;5.15;;;3.35;;
25609;SDS011;13479;49.044;8.716;2023-07-24T15:20:24;7.30;;;3.58;;
25609;SDS011;13479;49.044;8.716;2023-07-24T15:22:49;5.25;;;3.47;;
25609;SDS011;13479;49.044;8.716;2023-07-24T15:25:14;7.28;;;3.38;;
25609;SDS011;13479;49.044;8.716;2023-07-24T15:27:40;7.57;;;3.72;;
25609;SDS011;13479;49.044;8.716;2023-07-24T15:30:05;9.02;;;4.07;;
25609;SDS011;13479;49.044;8.716;2023-07-24T15:32:31;6.90;;;4.35;;
25609;SDS011;13479;49.044;8.716;2023-07-24T15:34:56;10.13;;;4.85;;
25609;SDS011;13479;49.044;8.716;2023-07-24T15:37:22;10.35;;;4.32;;
25609;SDS011;13479;49.044;8.716;2023-07-24T15:39:47;8.55;;;4.47;;
25609;SDS011;13479;49.044;8.716;2023-07-24T15:42:12;9.98;;;4.90;;
25609;SDS011;13479;49.044;8.716;2023-07-24T15:44:37;8.48;;;4.50;;
25609;SDS011;13479;49.044;8.716;2023-07-24T15:47:03;8.00;;;4.50;;
25609;SDS011;13479;49.044;8.716;2023-07-24T15:49:28;8.77;;;4.82;;
25609;SDS011;13479;49.044;8.716;2023-07-24T15:51:53;9.32;;;4.82;;
25609;SDS011;13479;49.044;8.716;2023-07-24T15:54:18;9.23;;;4.60;;
25609;SDS011;13479;49.044;8.716;2023-07-24T15:56:44;5.85;;;4.22;;
25609;SDS011;13479;49.044;8.716;2023-07-24T15:59:09;8.93;;;4.80;;
25609;SDS011;13479;49.044;8.716;2023-07-24T16:01:34;8.35;;;4.68;;
25609;SDS011;13479;49.044;8.716;2023-07-24T16:04:00;10.45;;;4.85;;
25609;SDS011;13479;49.044;8.716;2023-07-24T16:06:25;7.13;;;4.75;;
25609;SDS011;13479;49.044;8.716;2023-07-24T16:08:50;7.97;;;4.45;;
25609;SDS011;13479;49.044;8.716;2023-07-24T16:11:16;9.70;;;4.50;;
25609;SDS011;13479;49.044;8.716;2023-07-24T16:13:42;8.40;;;5.28;;
25609;SDS011;13479;49.044;8.716;2023-07-24T16:16:07;9.90;;;4.22;;
25609;SDS011;13479;49.044;8.716;2023-07-24T16:18:34;7.25;;;4.60;;
25609;SDS011;13479;49.044;8.716;2023-07-24T16:21:00;5.93;;;3.92;;
25609;SDS011;13479;49.044;8.716;2023-07-24T16:23:26;6.10;;;3.90;;
25609;SDS011;13479;49.044;8.716;2023-07-24T16:25:51;5.18;;;3.67;;
25609;SDS011;13479;49.044;8.716;2023-07-24T16:28:16;6.20;;;3.92;;
25609;SDS011;13479;49.044;8.716;2023-07-24T16:30:42;4.78;;;3.33;;
25609;SDS011;13479;49.044;8.716;2023-07-24T16:33:07;7.03;;;3.55;;
25609;SDS011;13479;49.044;8.716;2023-07-24T16:35:32;5.57;;;3.60;;
25609;SDS011;13479;49.044;8.716;2023-07-24T16:37:58;6.05;;;3.53;;
25609;SDS011;13479;49.044;8.716;2023-07-24T16:40:23;5.95;;;3.40;;
25609;SDS011;13479;49.044;8.716;2023-07-24T16:42:48;4.75;;;2.90;;
25609;SDS011;13479;49.044;8.716;2023-07-24T16:45:14;5.03;;;3.33;;
25609;SDS011;13479;49.044;8.716;2023-07-24T16:47:39;4.63;;;3.10;;
25609;SDS011;13479;49.044;8.716;2023-07-24T16:50:04;7.57;;;3.28;;
25609;SDS011;13479;49.044;8.716;2023-07-24T16:52:30;5.43;;;3.17;;
25609;SDS011;13479;49.044;8.716;2023-07-24T16:54:56;6.63;;;2.88;;
25609;SDS011;13479;49.044;8.716;2023-07-24T16:57:22;4.35;;;2.65;;
25609;SDS011;13479;49.044;8.716;2023-07-24T16:59:47;7.80;;;2.88;;
25609;SDS011;13479;49.044;8.716;2023-07-24T17:02:12;6.13;;;2.70;;
25609;SDS011;13479;49.044;8.716;2023-07-24T17:04:38;3.22;;;2.33;;
25609;SDS011;13479;49.044;8.716;2023-07-24T17:07:03;3.60;;;2.33;;
25609;SDS011;13479;49.044;8.716;2023-07-24T17:09:29;3.33;;;2.20;;
25609;SDS011;13479;49.044;8.716;2023-07-24T17:11:54;4.43;;;2.55;;
25609;SDS011;13479;49.044;8.716;2023-07-24T17:14:19;3.33;;;2.22;;
25609;SDS011;13479;49.044;8.716;2023-07-24T17:16:45;4.78;;;2.40;;
25609;SDS011;13479;49.044;8.716;2023-07-24T17:19:10;3.03;;;2.03;;
25609;SDS011;13479;49.044;8.716;2023-07-24T17:21:35;3.67;;;1.90;;
25609;SDS011;13479;49.044;8.716;2023-07-24T17:24:01;3.25;;;1.90;;
25609;SDS011;13479;49.044;8.716;2023-07-24T17:26:27;2.88;;;2.05;;
25609;SDS011;13479;49.044;8.716;2023-07-24T17:28:56;2.72;;;1.70;;
25609;SDS011;13479;49.044;8.716;2023-07-24T17:31:22;2.97;;;2.03;;
25609;SDS011;13479;49.044;8.716;2023-07-24T17:33:47;3.08;;;1.92;;
25609;SDS011;13479;49.044;8.716;2023-07-24T17:36:12;5.50;;;1.95;;
25609;SDS011;13479;49.044;8.716;2023-07-24T17:38:37;3.03;;;1.83;;
25609;SDS011;13479;49.044;8.716;2023-07-24T17:41:03;4.18;;;2.08;;
25609;SDS011;13479;49.044;8.716;2023-07-24T17:43:29;3.88;;;2.25;;
25609;SDS011;13479;49.044;8.716;2023-07-24T17:45:54;3.47;;;1.95;;
25609;SDS011;13479;49.044;8.716;2023-07-24T17:48:20;5.85;;;1.90;;
25609;SDS011;13479;49.044;8.716;2023-07-24T17:50:45;4.55;;;1.70;;
25609;SDS011;13479;49.044;8.716;2023-07-24T17:53:10;1.98;;;1.63;;
25609;SDS011;13479;49.044;8.716;2023-07-24T17:55:36;2.50;;;1.70;;
25609;SDS011;13479;49.044;8.716;2023-07-24T17:58:01;2.42;;;1.50;;
25609;SDS011;13479;49.044;8.716;2023-07-24T18:00:27;2.42;;;1.45;;
25609;SDS011;13479;49.044;8.716;2023-07-24T18:02:52;2.55;;;1.35;;
25609;SDS011;13479;49.044;8.716;2023-07-24T18:05:17;3.60;;;1.58;;
25609;SDS011;13479;49.044;8.716;2023-07-24T18:07:43;2.35;;;1.50;;
25609;SDS011;13479;49.044;8.716;2023-07-24T18:10:08;2.90;;;1.58;;
25609;SDS011;13479;49.044;8.716;2023-07-24T18:12:33;3.40;;;1.35;;
25609;SDS011;13479;49.044;8.716;2023-07-24T18:14:59;4.05;;;1.60;;
25609;SDS011;13479;49.044;8.716;2023-07-24T18:17:24;1.92;;;1.42;;
25609;SDS011;13479;49.044;8.716;2023-07-24T18:19:49;2.45;;;1.48;;
25609;SDS011;13479;49.044;8.716;2023-07-24T18:22:15;2.50;;;1.30;;
25609;SDS011;13479;49.044;8.716;2023-07-24T18:24:42;3.60;;;1.38;;
25609;SDS011;13479;49.044;8.716;2023-07-24T18:27:07;4.65;;;1.42;;
25609;SDS011;13479;49.044;8.716;2023-07-24T18:29:33;2.58;;;1.60;;
25609;SDS011;13479;49.044;8.716;2023-07-24T18:31:58;3.63;;;1.40;;
25609;SDS011;13479;49.044;8.716;2023-07-24T18:34:23;4.72;;;1.65;;
25609;SDS011;13479;49.044;8.716;2023-07-24T18:36:49;9.02;;;1.90;;
25609;SDS011;13479;49.044;8.716;2023-07-24T18:39:14;3.38;;;1.48;;